sensor_id;sensor_type;location;lat;lon;timestamp;P1;durP1;ratioP1;P2;durP2;ratioP2
51810;SDS011;52468;40.116;18.296;2024-02-21T00:00:39;51.00;;;29.23;;
51810;SDS011;52468;40.116;18.296;2024-02-21T00:03:08;49.43;;;31.33;;
51810;SDS011;52468;40.116;18.296;2024-02-21T00:05:42;52.23;;;28.57;;
51810;SDS011;52468;40.116;18.296;2024-02-21T00:08:10;49.83;;;29.07;;
51810;SDS011;52468;40.116;18.296;2024-02-21T00:10:38;60.70;;;30.47;;
51810;SDS011;52468;40.116;18.296;2024-02-21T00:13:06;48.33;;;28.87;;
51810;SDS011;52468;40.116;18.296;2024-02-21T00:15:34;54.67;;;28.20;;
51810;SDS011;52468;40.116;18.296;2024-02-21T00:18:02;49.20;;;29.67;;
51810;SDS011;52468;40.116;18.296;2024-02-21T00:20:30;80.43;;;30.70;;
51810;SDS011;52468;40.116;18.296;2024-02-21T00:22:58;53.93;;;28.47;;
51810;SDS011;52468;40.116;18.296;2024-02-21T00:25:26;50.10;;;31.50;;
51810;SDS011;52468;40.116;18.296;2024-02-21T00:27:54;51.27;;;30.40;;
51810;SDS011;52468;40.116;18.296;2024-02-21T00:30:22;52.10;;;30.07;;
51810;SDS011;52468;40.116;18.296;2024-02-21T00:32:50;51.37;;;29.47;;
51810;SDS011;52468;40.116;18.296;2024-02-21T00:35:18;54.33;;;28.30;;
51810;SDS011;52468;40.116;18.296;2024-02-21T00:37:46;58.40;;;31.10;;
51810;SDS011;52468;40.116;18.296;2024-02-21T00:40:14;52.57;;;28.83;;
51810;SDS011;52468;40.116;18.296;2024-02-21T00:42:47;54.78;;;29.70;;
51810;SDS011;52468;40.116;18.296;2024-02-21T00:45:15;48.70;;;30.00;;
51810;SDS011;52468;40.116;18.296;2024-02-21T00:47:43;55.53;;;31.30;;
51810;SDS011;52468;40.116;18.296;2024-02-21T00:50:10;57.53;;;30.90;;
51810;SDS011;52468;40.116;18.296;2024-02-21T00:52:38;54.17;;;31.23;;
51810;SDS011;52468;40.116;18.296;2024-02-21T00:55:06;61.23;;;32.60;;
51810;SDS011;52468;40.116;18.296;2024-02-21T00:57:36;70.23;;;33.60;;
51810;SDS011;52468;40.116;18.296;2024-02-21T01:00:04;57.50;;;32.07;;
51810;SDS011;52468;40.116;18.296;2024-02-21T01:02:32;53.57;;;32.90;;
51810;SDS011;52468;40.116;18.296;2024-02-21T01:05:01;60.47;;;33.00;;
51810;SDS011;52468;40.116;18.296;2024-02-21T01:07:29;62.07;;;35.30;;
51810;SDS011;52468;40.116;18.296;2024-02-21T01:09:57;60.13;;;34.67;;
51810;SDS011;52468;40.116;18.296;2024-02-21T01:12:25;67.00;;;36.57;;
51810;SDS011;52468;40.116;18.296;2024-02-21T01:14:53;73.00;;;36.93;;
51810;SDS011;52468;40.116;18.296;2024-02-21T01:17:21;62.83;;;34.53;;
51810;SDS011;52468;40.116;18.296;2024-02-21T01:19:49;73.47;;;38.07;;
51810;SDS011;52468;40.116;18.296;2024-02-21T01:22:17;70.17;;;37.03;;
51810;SDS011;52468;40.116;18.296;2024-02-21T01:24:45;65.63;;;39.03;;
51810;SDS011;52468;40.116;18.296;2024-02-21T01:27:13;77.67;;;40.90;;
51810;SDS011;52468;40.116;18.296;2024-02-21T01:29:41;72.87;;;38.93;;
51810;SDS011;52468;40.116;18.296;2024-02-21T01:32:08;68.13;;;37.37;;
51810;SDS011;52468;40.116;18.296;2024-02-21T01:34:36;67.37;;;38.73;;
51810;SDS011;52468;40.116;18.296;2024-02-21T01:37:04;68.73;;;38.80;;
51810;SDS011;52468;40.116;18.296;2024-02-21T01:39:34;78.90;;;40.83;;
51810;SDS011;52468;40.116;18.296;2024-02-21T01:42:02;82.00;;;41.17;;
51810;SDS011;52468;40.116;18.296;2024-02-21T01:44:31;76.40;;;42.40;;
51810;SDS011;52468;40.116;18.296;2024-02-21T01:46:59;78.77;;;44.27;;
51810;SDS011;52468;40.116;18.296;2024-02-21T01:49:27;74.30;;;42.17;;
51810;SDS011;52468;40.116;18.296;2024-02-21T01:51:55;81.03;;;43.60;;
51810;SDS011;52468;40.116;18.296;2024-02-21T01:54:23;82.93;;;46.10;;
51810;SDS011;52468;40.116;18.296;2024-02-21T01:56:55;79.10;;;45.40;;
51810;SDS011;52468;40.116;18.296;2024-02-21T01:59:24;89.20;;;46.63;;
51810;SDS011;52468;40.116;18.296;2024-02-21T02:01:52;82.20;;;43.60;;
51810;SDS011;52468;40.116;18.296;2024-02-21T02:04:22;76.73;;;43.67;;
51810;SDS011;52468;40.116;18.296;2024-02-21T02:06:52;82.27;;;45.33;;
51810;SDS011;52468;40.116;18.296;2024-02-21T02:09:23;81.10;;;45.50;;
51810;SDS011;52468;40.116;18.296;2024-02-21T02:11:51;86.17;;;46.40;;
51810;SDS011;52468;40.116;18.296;2024-02-21T02:14:19;84.20;;;45.67;;
51810;SDS011;52468;40.116;18.296;2024-02-21T02:16:47;75.73;;;44.77;;
51810;SDS011;52468;40.116;18.296;2024-02-21T02:19:15;79.93;;;46.90;;
51810;SDS011;52468;40.116;18.296;2024-02-21T02:21:46;89.23;;;49.60;;
51810;SDS011;52468;40.116;18.296;2024-02-21T02:24:22;89.17;;;50.83;;
51810;SDS011;52468;40.116;18.296;2024-02-21T02:26:52;83.77;;;47.03;;
51810;SDS011;52468;40.116;18.296;2024-02-21T02:29:21;86.40;;;49.10;;
51810;SDS011;52468;40.116;18.296;2024-02-21T02:31:49;83.10;;;48.43;;
51810;SDS011;52468;40.116;18.296;2024-02-21T02:34:17;89.07;;;48.93;;
51810;SDS011;52468;40.116;18.296;2024-02-21T02:36:45;79.33;;;45.57;;
51810;SDS011;52468;40.116;18.296;2024-02-21T02:39:13;86.03;;;49.17;;
51810;SDS011;52468;40.116;18.296;2024-02-21T02:41:41;83.33;;;48.10;;
51810;SDS011;52468;40.116;18.296;2024-02-21T02:44:09;83.70;;;48.50;;
51810;SDS011;52468;40.116;18.296;2024-02-21T02:46:39;81.30;;;48.33;;
51810;SDS011;52468;40.116;18.296;2024-02-21T02:49:08;89.57;;;49.37;;
51810;SDS011;52468;40.116;18.296;2024-02-21T02:51:36;80.97;;;48.13;;
51810;SDS011;52468;40.116;18.296;2024-02-21T02:54:08;88.83;;;49.33;;
51810;SDS011;52468;40.116;18.296;2024-02-21T02:56:36;84.57;;;48.47;;
51810;SDS011;52468;40.116;18.296;2024-02-21T02:59:04;85.27;;;47.20;;
51810;SDS011;52468;40.116;18.296;2024-02-21T03:01:33;82.97;;;47.97;;
51810;SDS011;52468;40.116;18.296;2024-02-21T03:04:02;81.17;;;45.67;;
51810;SDS011;52468;40.116;18.296;2024-02-21T03:06:30;84.83;;;46.27;;
51810;SDS011;52468;40.116;18.296;2024-02-21T03:08:58;80.03;;;45.10;;
51810;SDS011;52468;40.116;18.296;2024-02-21T03:11:27;86.03;;;45.30;;
51810;SDS011;52468;40.116;18.296;2024-02-21T03:13:56;77.50;;;46.93;;
51810;SDS011;52468;40.116;18.296;2024-02-21T03:16:24;87.57;;;46.63;;
51810;SDS011;52468;40.116;18.296;2024-02-21T03:18:52;79.73;;;44.63;;
51810;SDS011;52468;40.116;18.296;2024-02-21T03:21:20;88.10;;;46.83;;
51810;SDS011;52468;40.116;18.296;2024-02-21T03:23:48;83.10;;;47.03;;
51810;SDS011;52468;40.116;18.296;2024-02-21T03:26:16;84.20;;;45.53;;
51810;SDS011;52468;40.116;18.296;2024-02-21T03:28:44;88.53;;;45.63;;
51810;SDS011;52468;40.116;18.296;2024-02-21T03:31:15;88.03;;;49.23;;
51810;SDS011;52468;40.116;18.296;2024-02-21T03:33:43;91.33;;;49.77;;
51810;SDS011;52468;40.116;18.296;2024-02-21T03:36:14;82.27;;;45.53;;
51810;SDS011;52468;40.116;18.296;2024-02-21T03:38:45;89.47;;;48.58;;
51810;SDS011;52468;40.116;18.296;2024-02-21T03:41:12;90.23;;;48.20;;
51810;SDS011;52468;40.116;18.296;2024-02-21T03:43:40;77.57;;;46.07;;
51810;SDS011;52468;40.116;18.296;2024-02-21T03:46:08;78.57;;;44.60;;
51810;SDS011;52468;40.116;18.296;2024-02-21T03:48:36;83.37;;;45.87;;
51810;SDS011;52468;40.116;18.296;2024-02-21T03:51:04;88.27;;;44.83;;
51810;SDS011;52468;40.116;18.296;2024-02-21T03:53:32;80.40;;;44.03;;
51810;SDS011;52468;40.116;18.296;2024-02-21T03:56:01;82.60;;;45.43;;
51810;SDS011;52468;40.116;18.296;2024-02-21T03:58:31;85.37;;;46.30;;
51810;SDS011;52468;40.116;18.296;2024-02-21T04:01:02;82.37;;;42.87;;
51810;SDS011;52468;40.116;18.296;2024-02-21T04:03:30;82.43;;;43.60;;
51810;SDS011;52468;40.116;18.296;2024-02-21T04:05:58;68.10;;;40.27;;
51810;SDS011;52468;40.116;18.296;2024-02-21T04:08:27;75.20;;;43.60;;
51810;SDS011;52468;40.116;18.296;2024-02-21T04:10:55;76.77;;;42.87;;
51810;SDS011;52468;40.116;18.296;2024-02-21T04:13:23;72.20;;;40.83;;
51810;SDS011;52468;40.116;18.296;2024-02-21T04:15:51;73.17;;;41.30;;
51810;SDS011;52468;40.116;18.296;2024-02-21T04:18:19;71.13;;;41.37;;
51810;SDS011;52468;40.116;18.296;2024-02-21T04:20:47;78.60;;;40.57;;
51810;SDS011;52468;40.116;18.296;2024-02-21T04:23:15;77.40;;;41.97;;
51810;SDS011;52468;40.116;18.296;2024-02-21T04:25:43;74.90;;;38.47;;
51810;SDS011;52468;40.116;18.296;2024-02-21T04:28:10;70.93;;;39.23;;
51810;SDS011;52468;40.116;18.296;2024-02-21T04:30:38;68.63;;;39.17;;
51810;SDS011;52468;40.116;18.296;2024-02-21T04:33:06;71.87;;;38.07;;
51810;SDS011;52468;40.116;18.296;2024-02-21T04:35:35;71.73;;;37.80;;
51810;SDS011;52468;40.116;18.296;2024-02-21T04:38:04;71.13;;;37.77;;
51810;SDS011;52468;40.116;18.296;2024-02-21T04:40:32;65.07;;;38.17;;
51810;SDS011;52468;40.116;18.296;2024-02-21T04:43:00;69.13;;;38.93;;
51810;SDS011;52468;40.116;18.296;2024-02-21T04:45:28;67.07;;;37.73;;
51810;SDS011;52468;40.116;18.296;2024-02-21T04:47:56;70.83;;;39.03;;
51810;SDS011;52468;40.116;18.296;2024-02-21T04:50:23;67.03;;;39.57;;
51810;SDS011;52468;40.116;18.296;2024-02-21T04:52:51;66.07;;;37.53;;
51810;SDS011;52468;40.116;18.296;2024-02-21T04:55:19;63.43;;;37.83;;
51810;SDS011;52468;40.116;18.296;2024-02-21T04:57:47;70.97;;;39.40;;
51810;SDS011;52468;40.116;18.296;2024-02-21T05:00:15;73.90;;;39.50;;
51810;SDS011;52468;40.116;18.296;2024-02-21T05:02:43;66.10;;;36.20;;
51810;SDS011;52468;40.116;18.296;2024-02-21T05:05:11;59.73;;;32.40;;
51810;SDS011;52468;40.116;18.296;2024-02-21T05:07:40;64.67;;;36.03;;
51810;SDS011;52468;40.116;18.296;2024-02-21T05:10:08;71.33;;;37.13;;
51810;SDS011;52468;40.116;18.296;2024-02-21T05:12:36;64.67;;;35.17;;
51810;SDS011;52468;40.116;18.296;2024-02-21T05:15:05;59.43;;;35.30;;
51810;SDS011;52468;40.116;18.296;2024-02-21T05:17:33;72.17;;;36.40;;
51810;SDS011;52468;40.116;18.296;2024-02-21T05:20:02;71.27;;;37.50;;
51810;SDS011;52468;40.116;18.296;2024-02-21T05:22:31;70.47;;;38.73;;
51810;SDS011;52468;40.116;18.296;2024-02-21T05:24:58;67.60;;;39.03;;
51810;SDS011;52468;40.116;18.296;2024-02-21T05:27:26;70.53;;;37.80;;
51810;SDS011;52468;40.116;18.296;2024-02-21T05:29:54;68.00;;;36.10;;
51810;SDS011;52468;40.116;18.296;2024-02-21T05:32:22;63.90;;;34.67;;
51810;SDS011;52468;40.116;18.296;2024-02-21T05:34:50;63.50;;;34.40;;
51810;SDS011;52468;40.116;18.296;2024-02-21T05:37:18;60.40;;;34.60;;
51810;SDS011;52468;40.116;18.296;2024-02-21T05:39:46;56.77;;;34.37;;
51810;SDS011;52468;40.116;18.296;2024-02-21T05:42:14;65.50;;;35.10;;
51810;SDS011;52468;40.116;18.296;2024-02-21T05:44:42;65.43;;;35.93;;
51810;SDS011;52468;40.116;18.296;2024-02-21T05:47:10;68.53;;;34.67;;
51810;SDS011;52468;40.116;18.296;2024-02-21T05:49:39;64.90;;;37.00;;
51810;SDS011;52468;40.116;18.296;2024-02-21T05:52:07;65.97;;;34.97;;
51810;SDS011;52468;40.116;18.296;2024-02-21T05:54:37;64.17;;;36.73;;
51810;SDS011;52468;40.116;18.296;2024-02-21T05:57:07;66.13;;;36.63;;
51810;SDS011;52468;40.116;18.296;2024-02-21T05:59:35;67.70;;;38.43;;
51810;SDS011;52468;40.116;18.296;2024-02-21T06:02:07;62.43;;;35.23;;
51810;SDS011;52468;40.116;18.296;2024-02-21T06:04:35;71.27;;;35.90;;
51810;SDS011;52468;40.116;18.296;2024-02-21T06:07:03;75.97;;;38.40;;
51810;SDS011;52468;40.116;18.296;2024-02-21T06:09:31;67.70;;;35.83;;
51810;SDS011;52468;40.116;18.296;2024-02-21T06:11:59;68.93;;;36.13;;
51810;SDS011;52468;40.116;18.296;2024-02-21T06:14:27;73.83;;;39.70;;
51810;SDS011;52468;40.116;18.296;2024-02-21T06:16:55;75.63;;;39.00;;
51810;SDS011;52468;40.116;18.296;2024-02-21T06:19:23;70.37;;;38.57;;
51810;SDS011;52468;40.116;18.296;2024-02-21T06:21:51;81.60;;;39.70;;
51810;SDS011;52468;40.116;18.296;2024-02-21T06:24:19;88.80;;;40.80;;
51810;SDS011;52468;40.116;18.296;2024-02-21T06:26:47;80.33;;;42.23;;
51810;SDS011;52468;40.116;18.296;2024-02-21T06:29:14;82.00;;;42.30;;
51810;SDS011;52468;40.116;18.296;2024-02-21T06:31:42;73.37;;;39.87;;
51810;SDS011;52468;40.116;18.296;2024-02-21T06:34:10;85.20;;;42.23;;
51810;SDS011;52468;40.116;18.296;2024-02-21T06:36:38;90.77;;;42.20;;
51810;SDS011;52468;40.116;18.296;2024-02-21T06:39:06;87.73;;;43.17;;
51810;SDS011;52468;40.116;18.296;2024-02-21T06:41:35;89.90;;;43.80;;
51810;SDS011;52468;40.116;18.296;2024-02-21T06:44:02;95.67;;;45.53;;
51810;SDS011;52468;40.116;18.296;2024-02-21T06:46:31;89.27;;;46.10;;
51810;SDS011;52468;40.116;18.296;2024-02-21T06:49:01;94.43;;;44.47;;
51810;SDS011;52468;40.116;18.296;2024-02-21T06:51:31;94.23;;;45.37;;
51810;SDS011;52468;40.116;18.296;2024-02-21T06:53:59;90.50;;;42.73;;
51810;SDS011;52468;40.116;18.296;2024-02-21T06:56:27;98.40;;;43.90;;
51810;SDS011;52468;40.116;18.296;2024-02-21T06:58:56;94.80;;;44.37;;
51810;SDS011;52468;40.116;18.296;2024-02-21T07:01:24;98.17;;;46.67;;
51810;SDS011;52468;40.116;18.296;2024-02-21T07:03:52;87.20;;;45.57;;
51810;SDS011;52468;40.116;18.296;2024-02-21T07:06:20;104.33;;;46.33;;
51810;SDS011;52468;40.116;18.296;2024-02-21T07:08:48;86.63;;;44.07;;
51810;SDS011;52468;40.116;18.296;2024-02-21T07:11:16;94.73;;;45.33;;
51810;SDS011;52468;40.116;18.296;2024-02-21T07:13:44;99.57;;;46.17;;
51810;SDS011;52468;40.116;18.296;2024-02-21T07:16:11;96.90;;;47.93;;
51810;SDS011;52468;40.116;18.296;2024-02-21T07:18:39;93.13;;;48.97;;
51810;SDS011;52468;40.116;18.296;2024-02-21T07:21:07;100.03;;;48.40;;
51810;SDS011;52468;40.116;18.296;2024-02-21T07:23:35;95.73;;;49.33;;
51810;SDS011;52468;40.116;18.296;2024-02-21T07:26:03;87.43;;;47.67;;
51810;SDS011;52468;40.116;18.296;2024-02-21T07:28:31;98.73;;;47.77;;
51810;SDS011;52468;40.116;18.296;2024-02-21T07:30:59;89.40;;;48.37;;
51810;SDS011;52468;40.116;18.296;2024-02-21T07:33:27;109.23;;;49.50;;
51810;SDS011;52468;40.116;18.296;2024-02-21T07:35:56;99.77;;;49.00;;
51810;SDS011;52468;40.116;18.296;2024-02-21T07:38:24;96.53;;;48.97;;
51810;SDS011;52468;40.116;18.296;2024-02-21T07:40:51;91.70;;;50.17;;
51810;SDS011;52468;40.116;18.296;2024-02-21T07:43:19;82.10;;;44.20;;
51810;SDS011;52468;40.116;18.296;2024-02-21T07:45:49;88.13;;;47.17;;
51810;SDS011;52468;40.116;18.296;2024-02-21T07:48:17;88.37;;;45.47;;
51810;SDS011;52468;40.116;18.296;2024-02-21T07:50:46;83.67;;;44.43;;
51810;SDS011;52468;40.116;18.296;2024-02-21T07:53:14;75.57;;;41.63;;
51810;SDS011;52468;40.116;18.296;2024-02-21T07:55:42;76.37;;;41.30;;
51810;SDS011;52468;40.116;18.296;2024-02-21T07:58:10;69.43;;;40.93;;
51810;SDS011;52468;40.116;18.296;2024-02-21T08:00:38;60.00;;;36.37;;
51810;SDS011;52468;40.116;18.296;2024-02-21T08:03:06;57.43;;;33.67;;
51810;SDS011;52468;40.116;18.296;2024-02-21T08:05:34;55.70;;;33.43;;
51810;SDS011;52468;40.116;18.296;2024-02-21T08:08:03;43.83;;;28.27;;
51810;SDS011;52468;40.116;18.296;2024-02-21T08:10:31;42.97;;;26.60;;
51810;SDS011;52468;40.116;18.296;2024-02-21T08:12:59;31.23;;;21.13;;
51810;SDS011;52468;40.116;18.296;2024-02-21T08:15:27;32.20;;;20.07;;
51810;SDS011;52468;40.116;18.296;2024-02-21T08:17:58;22.63;;;16.80;;
51810;SDS011;52468;40.116;18.296;2024-02-21T08:20:28;21.33;;;14.63;;
51810;SDS011;52468;40.116;18.296;2024-02-21T08:22:56;18.43;;;12.73;;
51810;SDS011;52468;40.116;18.296;2024-02-21T08:25:24;18.63;;;12.33;;
51810;SDS011;52468;40.116;18.296;2024-02-21T08:27:55;14.03;;;11.07;;
51810;SDS011;52468;40.116;18.296;2024-02-21T08:30:25;13.82;;;10.50;;
51810;SDS011;52468;40.116;18.296;2024-02-21T08:32:53;13.93;;;10.53;;
51810;SDS011;52468;40.116;18.296;2024-02-21T08:35:21;17.50;;;10.90;;
51810;SDS011;52468;40.116;18.296;2024-02-21T08:37:49;12.90;;;10.07;;
51810;SDS011;52468;40.116;18.296;2024-02-21T08:40:17;11.40;;;8.80;;
51810;SDS011;52468;40.116;18.296;2024-02-21T08:42:48;15.17;;;10.27;;
51810;SDS011;52468;40.116;18.296;2024-02-21T08:45:16;11.73;;;8.80;;
51810;SDS011;52468;40.116;18.296;2024-02-21T08:47:45;14.10;;;9.03;;
51810;SDS011;52468;40.116;18.296;2024-02-21T08:50:13;9.37;;;6.80;;
51810;SDS011;52468;40.116;18.296;2024-02-21T08:52:41;9.87;;;6.57;;
51810;SDS011;52468;40.116;18.296;2024-02-21T08:55:09;9.33;;;6.77;;
51810;SDS011;52468;40.116;18.296;2024-02-21T08:57:37;9.30;;;7.10;;
51810;SDS011;52468;40.116;18.296;2024-02-21T09:00:05;8.07;;;6.37;;
51810;SDS011;52468;40.116;18.296;2024-02-21T09:02:39;8.83;;;6.77;;
51810;SDS011;52468;40.116;18.296;2024-02-21T09:05:10;10.60;;;7.10;;
51810;SDS011;52468;40.116;18.296;2024-02-21T09:07:38;9.17;;;7.50;;
51810;SDS011;52468;40.116;18.296;2024-02-21T09:10:06;11.03;;;7.80;;
51810;SDS011;52468;40.116;18.296;2024-02-21T09:12:35;10.13;;;7.37;;
51810;SDS011;52468;40.116;18.296;2024-02-21T09:15:03;9.70;;;6.63;;
51810;SDS011;52468;40.116;18.296;2024-02-21T09:17:31;10.00;;;6.73;;
51810;SDS011;52468;40.116;18.296;2024-02-21T09:19:59;11.40;;;7.77;;
51810;SDS011;52468;40.116;18.296;2024-02-21T09:22:30;10.87;;;7.77;;
51810;SDS011;52468;40.116;18.296;2024-02-21T09:25:01;11.17;;;7.37;;
51810;SDS011;52468;40.116;18.296;2024-02-21T09:27:30;8.43;;;5.60;;
51810;SDS011;52468;40.116;18.296;2024-02-21T09:29:58;7.60;;;5.93;;
51810;SDS011;52468;40.116;18.296;2024-02-21T09:32:27;7.60;;;6.30;;
51810;SDS011;52468;40.116;18.296;2024-02-21T09:34:55;9.93;;;6.87;;
51810;SDS011;52468;40.116;18.296;2024-02-21T09:37:24;9.40;;;5.73;;
51810;SDS011;52468;40.116;18.296;2024-02-21T09:39:52;7.67;;;5.10;;
51810;SDS011;52468;40.116;18.296;2024-02-21T09:42:20;5.97;;;4.77;;
51810;SDS011;52468;40.116;18.296;2024-02-21T09:44:51;8.13;;;6.20;;
51810;SDS011;52468;40.116;18.296;2024-02-21T09:47:22;6.93;;;5.40;;
51810;SDS011;52468;40.116;18.296;2024-02-21T09:49:51;8.70;;;5.60;;
51810;SDS011;52468;40.116;18.296;2024-02-21T09:52:20;7.20;;;6.00;;
51810;SDS011;52468;40.116;18.296;2024-02-21T09:54:48;7.17;;;5.57;;
51810;SDS011;52468;40.116;18.296;2024-02-21T09:57:19;6.80;;;5.10;;
51810;SDS011;52468;40.116;18.296;2024-02-21T09:59:50;6.07;;;5.17;;
51810;SDS011;52468;40.116;18.296;2024-02-21T10:02:19;9.83;;;5.10;;
51810;SDS011;52468;40.116;18.296;2024-02-21T10:04:47;9.50;;;5.23;;
51810;SDS011;52468;40.116;18.296;2024-02-21T10:07:15;7.80;;;5.80;;
51810;SDS011;52468;40.116;18.296;2024-02-21T10:09:43;9.20;;;5.40;;
51810;SDS011;52468;40.116;18.296;2024-02-21T10:12:15;6.10;;;5.30;;
51810;SDS011;52468;40.116;18.296;2024-02-21T10:14:46;7.53;;;5.60;;
51810;SDS011;52468;40.116;18.296;2024-02-21T10:17:17;7.20;;;5.43;;
51810;SDS011;52468;40.116;18.296;2024-02-21T10:22:15;7.10;;;5.47;;
51810;SDS011;52468;40.116;18.296;2024-02-21T10:24:44;10.03;;;5.07;;
51810;SDS011;52468;40.116;18.296;2024-02-21T10:27:12;9.43;;;5.60;;
51810;SDS011;52468;40.116;18.296;2024-02-21T10:29:40;6.20;;;4.93;;
51810;SDS011;52468;40.116;18.296;2024-02-21T10:32:12;8.07;;;4.77;;
51810;SDS011;52468;40.116;18.296;2024-02-21T10:34:41;6.73;;;5.00;;
51810;SDS011;52468;40.116;18.296;2024-02-21T10:37:10;7.27;;;5.07;;
51810;SDS011;52468;40.116;18.296;2024-02-21T10:39:39;7.27;;;5.70;;
51810;SDS011;52468;40.116;18.296;2024-02-21T10:42:10;8.03;;;5.50;;
51810;SDS011;52468;40.116;18.296;2024-02-21T10:44:39;7.30;;;5.57;;
51810;SDS011;52468;40.116;18.296;2024-02-21T10:47:08;6.87;;;5.80;;
51810;SDS011;52468;40.116;18.296;2024-02-21T10:49:41;8.97;;;5.57;;
51810;SDS011;52468;40.116;18.296;2024-02-21T10:55:14;9.47;;;5.47;;
51810;SDS011;52468;40.116;18.296;2024-02-21T10:57:50;12.50;;;5.53;;
51810;SDS011;52468;40.116;18.296;2024-02-21T11:00:19;8.90;;;6.27;;
51810;SDS011;52468;40.116;18.296;2024-02-21T11:02:48;7.40;;;6.33;;
51810;SDS011;52468;40.116;18.296;2024-02-21T11:05:17;9.70;;;7.60;;
51810;SDS011;52468;40.116;18.296;2024-02-21T11:07:45;11.67;;;6.77;;
51810;SDS011;52468;40.116;18.296;2024-02-21T11:10:20;10.27;;;7.83;;
51810;SDS011;52468;40.116;18.296;2024-02-21T11:13:09;9.97;;;7.77;;
51810;SDS011;52468;40.116;18.296;2024-02-21T11:15:38;11.57;;;7.13;;
51810;SDS011;52468;40.116;18.296;2024-02-21T11:18:06;10.57;;;7.90;;
51810;SDS011;52468;40.116;18.296;2024-02-21T11:20:34;10.20;;;6.80;;
51810;SDS011;52468;40.116;18.296;2024-02-21T11:23:03;9.57;;;6.30;;
51810;SDS011;52468;40.116;18.296;2024-02-21T11:25:32;11.10;;;5.83;;
51810;SDS011;52468;40.116;18.296;2024-02-21T11:28:01;9.57;;;5.60;;
51810;SDS011;52468;40.116;18.296;2024-02-21T11:30:30;6.70;;;5.50;;
51810;SDS011;52468;40.116;18.296;2024-02-21T11:33:02;9.10;;;7.33;;
51810;SDS011;52468;40.116;18.296;2024-02-21T11:35:36;10.57;;;7.27;;
51810;SDS011;52468;40.116;18.296;2024-02-21T11:38:08;9.40;;;6.93;;
51810;SDS011;52468;40.116;18.296;2024-02-21T11:40:44;9.40;;;7.53;;
51810;SDS011;52468;40.116;18.296;2024-02-21T11:43:13;8.70;;;6.77;;
51810;SDS011;52468;40.116;18.296;2024-02-21T11:45:42;10.03;;;7.23;;
51810;SDS011;52468;40.116;18.296;2024-02-21T11:48:10;11.20;;;7.33;;
51810;SDS011;52468;40.116;18.296;2024-02-21T11:50:38;9.00;;;7.00;;
51810;SDS011;52468;40.116;18.296;2024-02-21T11:53:07;9.40;;;6.33;;
51810;SDS011;52468;40.116;18.296;2024-02-21T11:55:34;9.40;;;6.40;;
51810;SDS011;52468;40.116;18.296;2024-02-21T11:58:02;10.50;;;7.13;;
51810;SDS011;52468;40.116;18.296;2024-02-21T12:00:31;10.80;;;7.33;;
51810;SDS011;52468;40.116;18.296;2024-02-21T12:02:59;10.83;;;7.97;;
51810;SDS011;52468;40.116;18.296;2024-02-21T12:05:29;13.30;;;8.13;;
51810;SDS011;52468;40.116;18.296;2024-02-21T12:07:58;11.37;;;8.13;;
51810;SDS011;52468;40.116;18.296;2024-02-21T12:10:26;14.07;;;8.10;;
51810;SDS011;52468;40.116;18.296;2024-02-21T12:13:09;9.97;;;7.27;;
51810;SDS011;52468;40.116;18.296;2024-02-21T12:15:38;9.37;;;7.47;;
51810;SDS011;52468;40.116;18.296;2024-02-21T12:18:07;10.20;;;8.30;;
51810;SDS011;52468;40.116;18.296;2024-02-21T12:20:35;11.77;;;8.17;;
51810;SDS011;52468;40.116;18.296;2024-02-21T12:23:03;12.23;;;7.67;;
51810;SDS011;52468;40.116;18.296;2024-02-21T12:25:31;12.47;;;8.67;;
51810;SDS011;52468;40.116;18.296;2024-02-21T12:28:00;11.30;;;8.73;;
51810;SDS011;52468;40.116;18.296;2024-02-21T12:30:28;10.80;;;7.67;;
51810;SDS011;52468;40.116;18.296;2024-02-21T12:32:58;11.93;;;9.23;;
51810;SDS011;52468;40.116;18.296;2024-02-21T12:35:28;11.10;;;7.83;;
51810;SDS011;52468;40.116;18.296;2024-02-21T12:37:58;11.07;;;8.57;;
51810;SDS011;52468;40.116;18.296;2024-02-21T12:40:27;10.73;;;8.37;;
51810;SDS011;52468;40.116;18.296;2024-02-21T12:43:00;12.25;;;8.32;;
51810;SDS011;52468;40.116;18.296;2024-02-21T12:45:30;13.07;;;8.13;;
51810;SDS011;52468;40.116;18.296;2024-02-21T12:47:58;12.43;;;8.53;;
51810;SDS011;52468;40.116;18.296;2024-02-21T12:50:26;10.87;;;8.50;;
51810;SDS011;52468;40.116;18.296;2024-02-21T12:52:54;11.53;;;8.53;;
51810;SDS011;52468;40.116;18.296;2024-02-21T12:55:22;12.07;;;8.47;;
51810;SDS011;52468;40.116;18.296;2024-02-21T12:57:50;9.60;;;7.77;;
51810;SDS011;52468;40.116;18.296;2024-02-21T13:00:17;12.57;;;8.53;;
51810;SDS011;52468;40.116;18.296;2024-02-21T13:02:47;11.50;;;8.23;;
51810;SDS011;52468;40.116;18.296;2024-02-21T13:05:15;10.17;;;7.70;;
51810;SDS011;52468;40.116;18.296;2024-02-21T13:07:43;9.80;;;7.87;;
51810;SDS011;52468;40.116;18.296;2024-02-21T13:10:10;10.53;;;8.10;;
51810;SDS011;52468;40.116;18.296;2024-02-21T13:12:38;10.97;;;8.23;;
51810;SDS011;52468;40.116;18.296;2024-02-21T13:15:06;16.43;;;9.60;;
51810;SDS011;52468;40.116;18.296;2024-02-21T13:17:37;12.90;;;8.13;;
51810;SDS011;52468;40.116;18.296;2024-02-21T13:20:05;11.63;;;7.83;;
51810;SDS011;52468;40.116;18.296;2024-02-21T13:22:35;12.00;;;8.70;;
51810;SDS011;52468;40.116;18.296;2024-02-21T13:25:03;15.93;;;9.57;;
51810;SDS011;52468;40.116;18.296;2024-02-21T13:27:34;13.43;;;9.40;;
51810;SDS011;52468;40.116;18.296;2024-02-21T13:30:02;14.63;;;9.07;;
51810;SDS011;52468;40.116;18.296;2024-02-21T13:32:32;12.50;;;8.37;;
51810;SDS011;52468;40.116;18.296;2024-02-21T13:35:00;13.27;;;8.97;;
51810;SDS011;52468;40.116;18.296;2024-02-21T13:37:29;10.83;;;8.50;;
51810;SDS011;52468;40.116;18.296;2024-02-21T13:39:57;11.43;;;7.47;;
51810;SDS011;52468;40.116;18.296;2024-02-21T13:42:24;10.70;;;8.53;;
51810;SDS011;52468;40.116;18.296;2024-02-21T13:44:54;11.70;;;8.13;;
51810;SDS011;52468;40.116;18.296;2024-02-21T13:47:22;11.33;;;8.00;;
51810;SDS011;52468;40.116;18.296;2024-02-21T13:49:50;9.80;;;8.00;;
51810;SDS011;52468;40.116;18.296;2024-02-21T13:52:18;11.67;;;8.50;;
51810;SDS011;52468;40.116;18.296;2024-02-21T13:54:49;14.67;;;8.23;;
51810;SDS011;52468;40.116;18.296;2024-02-21T13:57:17;10.97;;;7.83;;
51810;SDS011;52468;40.116;18.296;2024-02-21T13:59:45;12.03;;;9.07;;
51810;SDS011;52468;40.116;18.296;2024-02-21T14:02:12;11.17;;;8.13;;
51810;SDS011;52468;40.116;18.296;2024-02-21T14:04:40;20.20;;;13.50;;
51810;SDS011;52468;40.116;18.296;2024-02-21T14:07:09;14.03;;;11.07;;
51810;SDS011;52468;40.116;18.296;2024-02-21T14:09:37;12.33;;;9.43;;
51810;SDS011;52468;40.116;18.296;2024-02-21T14:12:05;14.37;;;10.70;;
51810;SDS011;52468;40.116;18.296;2024-02-21T14:14:35;13.73;;;10.03;;
51810;SDS011;52468;40.116;18.296;2024-02-21T14:17:05;21.73;;;12.97;;
51810;SDS011;52468;40.116;18.296;2024-02-21T14:19:32;12.00;;;8.20;;
51810;SDS011;52468;40.116;18.296;2024-02-21T14:22:00;12.10;;;7.60;;
51810;SDS011;52468;40.116;18.296;2024-02-21T14:24:29;12.57;;;9.13;;
51810;SDS011;52468;40.116;18.296;2024-02-21T14:26:57;15.93;;;9.63;;
51810;SDS011;52468;40.116;18.296;2024-02-21T14:29:26;15.27;;;10.40;;